sensor_id;sensor_type;location;lat;lon;timestamp;pressure;altitude;pressure_sealevel;temperature;humidity
20987;BME280;10652;50.306;8.570;2023-02-02T00:01:18;98244.38;;;4.20;100.00
20987;BME280;10652;50.306;8.570;2023-02-02T00:05:21;98238.41;;;4.15;100.00
20987;BME280;10652;50.306;8.570;2023-02-02T00:09:26;98238.47;;;4.12;100.00
20987;BME280;10652;50.306;8.570;2023-02-02T00:13:30;98234.06;;;4.16;100.00
20987;BME280;10652;50.306;8.570;2023-02-02T00:17:32;98240.00;;;4.22;100.00
20987;BME280;10652;50.306;8.570;2023-02-02T00:21:34;98239.91;;;4.29;100.00
20987;BME280;10652;50.306;8.570;2023-02-02T00:25:36;98238.94;;;4.34;100.00
20987;BME280;10652;50.306;8.570;2023-02-02T00:29:38;98239.63;;;4.42;100.00
20987;BME280;10652;50.306;8.570;2023-02-02T00:33:45;98242.22;;;4.44;100.00
20987;BME280;10652;50.306;8.570;2023-02-02T00:37:47;98232.59;;;4.47;100.00
20987;BME280;10652;50.306;8.570;2023-02-02T00:41:49;98251.09;;;4.77;100.00
20987;BME280;10652;50.306;8.570;2023-02-02T00:45:52;98250.25;;;4.75;98.96
20987;BME280;10652;50.306;8.570;2023-02-02T00:49:54;98259.03;;;4.69;99.21
20987;BME280;10652;50.306;8.570;2023-02-02T00:53:56;98255.63;;;4.67;99.45
20987;BME280;10652;50.306;8.570;2023-02-02T00:57:58;98266.91;;;4.67;99.69
20987;BME280;10652;50.306;8.570;2023-02-02T01:02:00;98270.28;;;4.71;99.82
20987;BME280;10652;50.306;8.570;2023-02-02T01:06:03;98278.97;;;4.70;99.87
20987;BME280;10652;50.306;8.570;2023-02-02T01:10:07;98284.16;;;4.72;100.00
20987;BME280;10652;50.306;8.570;2023-02-02T01:14:11;98291.13;;;4.69;100.00
20987;BME280;10652;50.306;8.570;2023-02-02T01:18:13;98293.81;;;4.65;100.00
20987;BME280;10652;50.306;8.570;2023-02-02T01:22:15;98276.72;;;4.52;100.00
20987;BME280;10652;50.306;8.570;2023-02-02T01:26:18;98301.34;;;4.34;100.00
20987;BME280;10652;50.306;8.570;2023-02-02T01:30:21;98306.63;;;4.30;100.00
20987;BME280;10652;50.306;8.570;2023-02-02T01:34:23;98304.91;;;4.27;100.00
20987;BME280;10652;50.306;8.570;2023-02-02T01:38:25;98305.00;;;4.22;100.00
20987;BME280;10652;50.306;8.570;2023-02-02T01:42:27;98311.91;;;4.25;100.00
20987;BME280;10652;50.306;8.570;2023-02-02T01:46:34;98320.41;;;4.35;100.00
20987;BME280;10652;50.306;8.570;2023-02-02T01:50:36;98314.19;;;4.42;100.00
20987;BME280;10652;50.306;8.570;2023-02-02T01:54:47;98308.88;;;4.49;100.00
20987;BME280;10652;50.306;8.570;2023-02-02T01:58:51;98309.66;;;4.53;100.00
20987;BME280;10652;50.306;8.570;2023-02-02T02:02:58;98306.13;;;4.57;100.00
20987;BME280;10652;50.306;8.570;2023-02-02T02:07:03;98302.63;;;4.58;100.00
20987;BME280;10652;50.306;8.570;2023-02-02T02:11:06;98294.75;;;4.61;100.00
20987;BME280;10652;50.306;8.570;2023-02-02T02:15:09;98300.13;;;4.96;100.00
20987;BME280;10652;50.306;8.570;2023-02-02T02:34:08;98285.06;;;4.69;100.00
20987;BME280;10652;50.306;8.570;2023-02-02T02:38:29;98281.56;;;4.70;100.00
20987;BME280;10652;50.306;8.570;2023-02-02T02:42:39;98287.56;;;4.74;100.00
20987;BME280;10652;50.306;8.570;2023-02-02T02:46:44;98282.31;;;4.77;100.00
20987;BME280;10652;50.306;8.570;2023-02-02T02:50:46;98297.88;;;4.80;100.00
20987;BME280;10652;50.306;8.570;2023-02-02T02:54:53;98291.78;;;4.79;100.00
20987;BME280;10652;50.306;8.570;2023-02-02T02:59:04;98297.06;;;4.76;100.00
20987;BME280;10652;50.306;8.570;2023-02-02T03:03:13;98293.56;;;4.77;100.00
20987;BME280;10652;50.306;8.570;2023-02-02T03:07:34;98291.78;;;4.79;100.00
20987;BME280;10652;50.306;8.570;2023-02-02T03:11:39;98297.88;;;4.78;100.00
20987;BME280;10652;50.306;8.570;2023-02-02T03:15:44;98297.03;;;4.78;100.00
20987;BME280;10652;50.306;8.570;2023-02-02T03:19:47;98291.78;;;4.79;100.00
20987;BME280;10652;50.306;8.570;2023-02-02T03:23:49;98298.72;;;4.80;100.00
20987;BME280;10652;50.306;8.570;2023-02-02T03:27:51;98288.34;;;4.77;100.00
20987;BME280;10652;50.306;8.570;2023-02-02T03:31:54;98304.03;;;4.74;100.00
20987;BME280;10652;50.306;8.570;2023-02-02T03:35:56;98295.47;;;4.69;100.00
20987;BME280;10652;50.306;8.570;2023-02-02T03:39:58;98306.81;;;4.66;100.00
20987;BME280;10652;50.306;8.570;2023-02-02T03:44:01;98298.16;;;4.64;100.00
20987;BME280;10652;50.306;8.570;2023-02-02T03:48:03;98297.28;;;4.64;100.00
20987;BME280;10652;50.306;8.570;2023-02-02T03:52:06;98302.50;;;4.64;100.00
20987;BME280;10652;50.306;8.570;2023-02-02T03:56:08;98309.41;;;4.65;100.00
20987;BME280;10652;50.306;8.570;2023-02-02T04:00:10;98316.34;;;4.66;100.00
20987;BME280;10652;50.306;8.570;2023-02-02T04:04:15;98321.47;;;4.69;100.00
20987;BME280;10652;50.306;8.570;2023-02-02T04:08:17;98317.94;;;4.73;100.00
20987;BME280;10652;50.306;8.570;2023-02-02T04:12:19;98318.78;;;4.74;100.00
20987;BME280;10652;50.306;8.570;2023-02-02T04:16:21;98308.44;;;4.72;100.00
20987;BME280;10652;50.306;8.570;2023-02-02T04:20:23;98324.84;;;4.76;100.00
20987;BME280;10652;50.306;8.570;2023-02-02T04:24:25;98329.97;;;4.80;100.00
20987;BME280;10652;50.306;8.570;2023-02-02T04:28:27;98317.81;;;4.79;100.00
20987;BME280;10652;50.306;8.570;2023-02-02T04:32:29;98324.78;;;4.77;100.00
20987;BME280;10652;50.306;8.570;2023-02-02T04:36:31;98313.56;;;4.77;100.00
20987;BME280;10652;50.306;8.570;2023-02-02T04:40:37;98326.56;;;4.77;100.00
20987;BME280;10652;50.306;8.570;2023-02-02T04:44:39;98338.72;;;4.76;100.00
20987;BME280;10652;50.306;8.570;2023-02-02T04:48:41;98342.19;;;4.77;100.00
20987;BME280;10652;50.306;8.570;2023-02-02T04:52:44;98342.09;;;4.80;100.00
20987;BME280;10652;50.306;8.570;2023-02-02T04:56:46;98341.22;;;4.81;100.00
20987;BME280;10652;50.306;8.570;2023-02-02T05:00:48;98337.81;;;4.77;100.00
20987;BME280;10652;50.306;8.570;2023-02-02T05:04:50;98331.78;;;4.75;100.00
20987;BME280;10652;50.306;8.570;2023-02-02T05:08:52;98342.19;;;4.75;100.00
20987;BME280;10652;50.306;8.570;2023-02-02T05:12:54;98340.41;;;4.77;100.00
20987;BME280;10652;50.306;8.570;2023-02-02T05:16:56;98349.06;;;4.79;100.00
20987;BME280;10652;50.306;8.570;2023-02-02T05:20:59;98349.13;;;4.76;100.00
20987;BME280;10652;50.306;8.570;2023-02-02T05:25:03;98347.41;;;4.75;100.00
20987;BME280;10652;50.306;8.570;2023-02-02T05:29:05;98349.97;;;4.77;100.00
20987;BME280;10652;50.306;8.570;2023-02-02T05:33:07;98347.34;;;4.78;100.00
20987;BME280;10652;50.306;8.570;2023-02-02T05:37:09;98354.25;;;4.79;100.00
20987;BME280;10652;50.306;8.570;2023-02-02T05:41:11;98355.09;;;4.81;100.00
20987;BME280;10652;50.306;8.570;2023-02-02T05:45:14;98362.06;;;4.79;100.00
20987;BME280;10652;50.306;8.570;2023-02-02T05:49:16;98363.88;;;4.76;100.00
20987;BME280;10652;50.306;8.570;2023-02-02T05:53:18;98350.81;;;4.77;100.00
20987;BME280;10652;50.306;8.570;2023-02-02T05:57:20;98354.34;;;4.76;100.00
20987;BME280;10652;50.306;8.570;2023-02-02T06:01:22;98343.06;;;4.74;100.00
20987;BME280;10652;50.306;8.570;2023-02-02T06:05:24;98349.22;;;4.70;100.00
20987;BME280;10652;50.306;8.570;2023-02-02T06:09:26;98343.97;;;4.73;100.00
20987;BME280;10652;50.306;8.570;2023-02-02T06:13:28;98343.19;;;4.68;100.00
20987;BME280;10652;50.306;8.570;2023-02-02T06:17:31;98338.88;;;4.67;100.00
20987;BME280;10652;50.306;8.570;2023-02-02T06:21:33;98353.66;;;4.63;100.00
20987;BME280;10652;50.306;8.570;2023-02-02T06:25:35;98367.59;;;4.61;100.00
20987;BME280;10652;50.306;8.570;2023-02-02T06:29:37;98369.34;;;4.60;100.00
20987;BME280;10652;50.306;8.570;2023-02-02T06:33:39;98382.38;;;4.60;100.00
20987;BME280;10652;50.306;8.570;2023-02-02T06:37:41;98387.59;;;4.59;100.00
20987;BME280;10652;50.306;8.570;2023-02-02T06:41:43;98401.44;;;4.61;100.00
20987;BME280;10652;50.306;8.570;2023-02-02T06:45:47;98376.13;;;4.70;100.00
20987;BME280;10652;50.306;8.570;2023-02-02T06:49:49;98364.72;;;5.21;100.00
20987;BME280;10652;50.306;8.570;2023-02-02T06:53:51;98373.78;;;5.43;100.00
20987;BME280;10652;50.306;8.570;2023-02-02T06:57:55;98356.97;;;5.18;100.00
20987;BME280;10652;50.306;8.570;2023-02-02T07:01:58;98385.91;;;5.02;100.00
20987;BME280;10652;50.306;8.570;2023-02-02T07:06:13;98367.88;;;4.93;100.00
20987;BME280;10652;50.306;8.570;2023-02-02T07:10:16;98364.50;;;4.88;100.00
20987;BME280;10652;50.306;8.570;2023-02-02T07:14:39;98357.63;;;4.86;100.00
20987;BME280;10652;50.306;8.570;2023-02-02T07:18:42;98378.38;;;4.87;100.00
20987;BME280;10652;50.306;8.570;2023-02-02T07:22:44;98384.47;;;4.86;100.00
20987;BME280;10652;50.306;8.570;2023-02-02T07:26:46;98374.97;;;4.85;100.00
20987;BME280;10652;50.306;8.570;2023-02-02T07:30:49;98375.94;;;4.80;100.00
20987;BME280;10652;50.306;8.570;2023-02-02T07:34:51;98383.72;;;4.81;100.00
20987;BME280;10652;50.306;8.570;2023-02-02T07:38:53;98392.34;;;4.83;100.00
20987;BME280;10652;50.306;8.570;2023-02-02T07:42:55;98382.00;;;4.80;100.00
20987;BME280;10652;50.306;8.570;2023-02-02T07:47:01;98402.75;;;4.83;100.00
20987;BME280;10652;50.306;8.570;2023-02-02T07:51:05;98386.28;;;4.84;100.00
20987;BME280;10652;50.306;8.570;2023-02-02T07:55:07;98377.44;;;4.91;100.00
20987;BME280;10652;50.306;8.570;2023-02-02T07:59:15;98375.69;;;4.93;100.00
20987;BME280;10652;50.306;8.570;2023-02-02T08:03:17;98390.34;;;4.97;100.00
20987;BME280;10652;50.306;8.570;2023-02-02T08:07:20;98387.72;;;4.99;100.00
20987;BME280;10652;50.306;8.570;2023-02-02T08:11:26;98386.06;;;4.95;100.00
20987;BME280;10652;50.306;8.570;2023-02-02T08:15:28;98404.31;;;4.93;100.00
20987;BME280;10652;50.306;8.570;2023-02-02T08:19:30;98407.72;;;4.95;100.00
20987;BME280;10652;50.306;8.570;2023-02-02T08:23:33;98417.34;;;4.93;100.00
20987;BME280;10652;50.306;8.570;2023-02-02T08:27:37;98412.91;;;4.98;100.00
20987;BME280;10652;50.306;8.570;2023-02-02T08:31:39;98415.38;;;5.04;100.00
20987;BME280;10652;50.306;8.570;2023-02-02T08:35:44;98409.25;;;5.08;100.00
20987;BME280;10652;50.306;8.570;2023-02-02T08:39:48;98403.00;;;5.15;100.00
20987;BME280;10652;50.306;8.570;2023-02-02T08:43:50;98415.97;;;5.19;100.00
20987;BME280;10652;50.306;8.570;2023-02-02T08:47:52;98409.97;;;5.15;100.00
20987;BME280;10652;50.306;8.570;2023-02-02T08:52:11;98429.91;;;5.18;100.00
20987;BME280;10652;50.306;8.570;2023-02-02T08:56:19;98429.75;;;5.24;100.00
20987;BME280;10652;50.306;8.570;2023-02-02T09:00:22;98419.31;;;5.25;100.00
20987;BME280;10652;50.306;8.570;2023-02-02T09:04:24;98422.78;;;5.26;100.00
20987;BME280;10652;50.306;8.570;2023-02-02T09:08:26;98425.28;;;5.30;100.00
20987;BME280;10652;50.306;8.570;2023-02-02T09:12:29;98436.56;;;5.31;100.00
20987;BME280;10652;50.306;8.570;2023-02-02T09:16:32;98428.72;;;5.32;100.00
20987;BME280;10652;50.306;8.570;2023-02-02T09:20:35;98423.50;;;5.32;100.00
20987;BME280;10652;50.306;8.570;2023-02-02T09:24:37;98432.88;;;5.41;100.00
20987;BME280;10652;50.306;8.570;2023-02-02T09:28:41;98444.03;;;5.49;100.00
20987;BME280;10652;50.306;8.570;2023-02-02T09:32:47;98439.53;;;5.55;100.00
20987;BME280;10652;50.306;8.570;2023-02-02T09:36:50;98451.56;;;5.61;100.00
20987;BME280;10652;50.306;8.570;2023-02-02T09:40:52;98460.34;;;5.58;100.00
20987;BME280;10652;50.306;8.570;2023-02-02T09:49:07;98482.41;;;5.82;100.00
20987;BME280;10652;50.306;8.570;2023-02-02T09:53:26;98482.97;;;5.96;100.00
20987;BME280;10652;50.306;8.570;2023-02-02T09:57:38;98489.06;;;5.95;100.00
20987;BME280;10652;50.306;8.570;2023-02-02T10:01:43;98502.94;;;5.97;100.00
20987;BME280;10652;50.306;8.570;2023-02-02T10:05:54;98506.25;;;6.05;100.00
20987;BME280;10652;50.306;8.570;2023-02-02T10:10:03;98505.34;;;6.07;100.00
20987;BME280;10652;50.306;8.570;2023-02-02T10:14:18;98516.59;;;6.09;100.00
20987;BME280;10652;50.306;8.570;2023-02-02T10:18:36;98516.66;;;6.05;100.00
20987;BME280;10652;50.306;8.570;2023-02-02T10:22:40;98526.28;;;6.03;100.00
20987;BME280;10652;50.306;8.570;2023-02-02T10:26:45;98521.97;;;6.02;100.00
20987;BME280;10652;50.306;8.570;2023-02-02T10:30:59;98538.22;;;6.14;100.00
20987;BME280;10652;50.306;8.570;2023-02-02T10:39:29;98540.72;;;6.20;100.00
20987;BME280;10652;50.306;8.570;2023-02-02T10:43:50;98534.25;;;6.37;100.00
20987;BME280;10652;50.306;8.570;2023-02-02T10:47:58;98527.88;;;6.51;99.76
20987;BME280;10652;50.306;8.570;2023-02-02T10:56:09;98537.84;;;6.70;99.05
20987;BME280;10652;50.306;8.570;2023-02-02T11:04:24;98531.97;;;6.62;99.58
20987;BME280;10652;50.306;8.570;2023-02-02T11:08:47;98536.47;;;6.54;99.96
20987;BME280;10652;50.306;8.570;2023-02-02T11:12:50;98537.31;;;6.56;100.00
20987;BME280;10652;50.306;8.570;2023-02-02T11:17:05;98540.91;;;6.51;100.00
20987;BME280;10652;50.306;8.570;2023-02-02T11:21:28;98537.53;;;6.45;100.00
20987;BME280;10652;50.306;8.570;2023-02-02T11:25:36;98529.78;;;6.42;100.00
20987;BME280;10652;50.306;8.570;2023-02-02T11:33:40;98539.50;;;6.36;100.00
20987;BME280;10652;50.306;8.570;2023-02-02T11:37:58;98536.06;;;6.35;100.00
20987;BME280;10652;50.306;8.570;2023-02-02T11:42:12;98537.22;;;6.21;100.00
20987;BME280;10652;50.306;8.570;2023-02-02T11:46:19;98537.34;;;6.15;100.00
20987;BME280;10652;50.306;8.570;2023-02-02T11:50:25;98533.97;;;6.10;100.00
20987;BME280;10652;50.306;8.570;2023-02-02T11:54:31;98539.06;;;6.16;100.00
20987;BME280;10652;50.306;8.570;2023-02-02T11:58:45;98544.47;;;6.07;100.00
20987;BME280;10652;50.306;8.570;2023-02-02T12:02:48;98543.63;;;6.04;100.00
20987;BME280;10652;50.306;8.570;2023-02-02T12:06:50;98539.38;;;6.00;100.00
20987;BME280;10652;50.306;8.570;2023-02-02T12:11:00;98545.47;;;5.99;100.00
20987;BME280;10652;50.306;8.570;2023-02-02T12:15:25;98546.38;;;5.98;100.00
20987;BME280;10652;50.306;8.570;2023-02-02T12:24:17;98557.97;;;5.85;100.00
20987;BME280;10652;50.306;8.570;2023-02-02T12:45:59;98558.94;;;5.78;100.00
20987;BME280;10652;50.306;8.570;2023-02-02T12:50:26;98564.06;;;5.84;100.00
20987;BME280;10652;50.306;8.570;2023-02-02T12:55:32;98555.31;;;5.87;100.00
20987;BME280;10652;50.306;8.570;2023-02-02T13:07:51;98556.91;;;5.94;100.00
20987;BME280;10652;50.306;8.570;2023-02-02T13:12:06;98558.59;;;5.95;100.00
20987;BME280;10652;50.306;8.570;2023-02-02T13:16:11;98562.06;;;5.95;100.00
20987;BME280;10652;50.306;8.570;2023-02-02T13:20:36;98563.53;;;6.09;100.00
20987;BME280;10652;50.306;8.570;2023-02-02T13:24:41;98559.94;;;6.14;100.00
20987;BME280;10652;50.306;8.570;2023-02-02T13:28:57;98584.25;;;6.16;100.00
20987;BME280;10652;50.306;8.570;2023-02-02T13:33:21;98579.00;;;6.18;100.00
20987;BME280;10652;50.306;8.570;2023-02-02T13:37:30;98587.78;;;6.14;100.00
20987;BME280;10652;50.306;8.570;2023-02-02T13:41:38;98599.94;;;6.15;100.00
20987;BME280;10652;50.306;8.570;2023-02-02T13:49:52;98594.28;;;6.36;100.00
20987;BME280;10652;50.306;8.570;2023-02-02T13:54:03;98582.06;;;6.39;100.00
20987;BME280;10652;50.306;8.570;2023-02-02T14:06:59;98592.59;;;6.73;99.89
20987;BME280;10652;50.306;8.570;2023-02-02T14:11:07;98605.84;;;6.66;99.30
20987;BME280;10652;50.306;8.570;2023-02-02T14:15:09;98604.09;;;6.66;99.84
20987;BME280;10652;50.306;8.570;2023-02-02T14:23:48;98616.28;;;6.64;100.00
20987;BME280;10652;50.306;8.570;2023-02-02T14:28:00;98630.13;;;6.69;100.00
20987;BME280;10652;50.306;8.570;2023-02-02T14:36:30;98637.16;;;6.66;99.44
20987;BME280;10652;50.306;8.570;2023-02-02T14:45:03;98641.34;;;6.73;98.02
20987;BME280;10652;50.306;8.570;2023-02-02T14:49:14;98652.72;;;6.70;97.24
20987;BME280;10652;50.306;8.570;2023-02-02T14:53:19;98648.50;;;6.65;97.32
20987;BME280;10652;50.306;8.570;2023-02-02T14:57:25;98646.75;;;6.65;97.34
20987;BME280;10652;50.306;8.570;2023-02-02T15:01:31;98661.66;;;6.59;97.21
20987;BME280;10652;50.306;8.570;2023-02-02T15:05:34;98659.03;;;6.60;97.59
20987;BME280;10652;50.306;8.570;2023-02-02T15:09:43;98672.06;;;6.62;97.46
20987;BME280;10652;50.306;8.570;2023-02-02T15:13:49;98663.34;;;6.63;96.98
20987;BME280;10652;50.306;8.570;2023-02-02T15:18:01;98680.75;;;6.62;96.64
20987;BME280;10652;50.306;8.570;2023-02-02T15:22:33;98684.19;;;6.64;96.48
20987;BME280;10652;50.306;8.570;2023-02-02T15:26:39;98697.31;;;6.60;96.15
20987;BME280;10652;50.306;8.570;2023-02-02T15:30:47;98702.69;;;6.54;96.03
20987;BME280;10652;50.306;8.570;2023-02-02T15:35:03;98708.81;;;6.51;96.23
20987;BME280;10652;50.306;8.570;2023-02-02T15:39:25;98706.19;;;6.53;96.81
20987;BME280;10652;50.306;8.570;2023-02-02T15:43:28;98707.84;;;6.57;97.13
20987;BME280;10652;50.306;8.570;2023-02-02T15:47:35;98698.19;;;6.60;97.42
20987;BME280;10652;50.306;8.570;2023-02-02T15:51:51;98707.03;;;6.53;96.92
20987;BME280;10652;50.306;8.570;2023-02-02T15:55:55;98722.75;;;6.50;97.22
20987;BME280;10652;50.306;8.570;2023-02-02T15:59:59;98724.53;;;6.48;97.62
20987;BME280;10652;50.306;8.570;2023-02-02T16:04:25;98735.78;;;6.52;97.69
20987;BME280;10652;50.306;8.570;2023-02-02T16:08:30;98727.19;;;6.46;97.11
20987;BME280;10652;50.306;8.570;2023-02-02T16:12:38;98741.16;;;6.44;97.69
20987;BME280;10652;50.306;8.570;2023-02-02T16:16:41;98742.03;;;6.43;97.00
20987;BME280;10652;50.306;8.570;2023-02-02T16:20:44;98755.97;;;6.42;96.96
20987;BME280;10652;50.306;8.570;2023-02-02T16:24:50;98757.69;;;6.44;96.93
20987;BME280;10652;50.306;8.570;2023-02-02T16:28:53;98757.63;;;6.46;96.31
20987;BME280;10652;50.306;8.570;2023-02-02T16:32:56;98761.94;;;6.48;95.12
20987;BME280;10652;50.306;8.570;2023-02-02T16:37:28;98769.00;;;6.43;94.28
20987;BME280;10652;50.306;8.570;2023-02-02T16:41:34;98768.94;;;6.45;94.58
20987;BME280;10652;50.306;8.570;2023-02-02T16:45:57;98766.41;;;6.42;93.25
20987;BME280;10652;50.306;8.570;2023-02-02T16:58:14;98775.97;;;6.41;92.00
20987;BME280;10652;50.306;8.570;2023-02-02T17:02:26;98783.78;;;6.43;91.78
20987;BME280;10652;50.306;8.570;2023-02-02T17:06:32;98789.00;;;6.44;92.35
20987;BME280;10652;50.306;8.570;2023-02-02T17:19:17;98820.19;;;6.51;91.44
20987;BME280;10652;50.306;8.570;2023-02-02T17:23:19;98823.63;;;6.53;91.17
20987;BME280;10652;50.306;8.570;2023-02-02T17:27:29;98842.81;;;6.50;90.85
20987;BME280;10652;50.306;8.570;2023-02-02T17:31:35;98841.94;;;6.49;91.20
20987;BME280;10652;50.306;8.570;2023-02-02T17:35:37;98844.53;;;6.51;91.84
20987;BME280;10652;50.306;8.570;2023-02-02T17:39:55;98849.75;;;6.51;92.22
20987;BME280;10652;50.306;8.570;2023-02-02T17:43:57;98842.00;;;6.48;91.90
20987;BME280;10652;50.306;8.570;2023-02-02T17:48:00;98844.59;;;6.48;92.22
20987;BME280;10652;50.306;8.570;2023-02-02T17:52:02;98842.81;;;6.50;92.99
20987;BME280;10652;50.306;8.570;2023-02-02T17:56:05;98847.22;;;6.46;92.74
20987;BME280;10652;50.306;8.570;2023-02-02T18:00:07;98853.38;;;6.44;93.59
20987;BME280;10652;50.306;8.570;2023-02-02T18:04:11;98855.06;;;6.45;93.73
20987;BME280;10652;50.306;8.570;2023-02-02T18:08:14;98849.91;;;6.43;93.63
20987;BME280;10652;50.306;8.570;2023-02-02T18:12:16;98845.56;;;6.42;93.19
20987;BME280;10652;50.306;8.570;2023-02-02T18:16:18;98846.50;;;6.40;93.00
20987;BME280;10652;50.306;8.570;2023-02-02T18:20:22;98845.66;;;6.38;92.75
20987;BME280;10652;50.306;8.570;2023-02-02T18:24:24;98849.91;;;6.43;91.87
20987;BME280;10652;50.306;8.570;2023-02-02T18:28:26;98860.38;;;6.42;91.76
20987;BME280;10652;50.306;8.570;2023-02-02T18:32:29;98862.09;;;6.43;91.64
20987;BME280;10652;50.306;8.570;2023-02-02T18:36:31;98859.50;;;6.41;90.22
20987;BME280;10652;50.306;8.570;2023-02-02T18:40:34;98869.91;;;6.43;90.36
20987;BME280;10652;50.306;8.570;2023-02-02T18:44:36;98874.25;;;6.44;90.36
20987;BME280;10652;50.306;8.570;2023-02-02T18:48:40;98869.00;;;6.45;89.96
20987;BME280;10652;50.306;8.570;2023-02-02T18:52:42;98855.94;;;6.45;89.35
20987;BME280;10652;50.306;8.570;2023-02-02T18:56:44;98854.25;;;6.44;89.03
20987;BME280;10652;50.306;8.570;2023-02-02T19:00:46;98856.03;;;6.41;89.04
20987;BME280;10652;50.306;8.570;2023-02-02T19:04:48;98853.50;;;6.36;88.42
20987;BME280;10652;50.306;8.570;2023-02-02T19:09:09;98853.53;;;6.35;88.69
20987;BME280;10652;50.306;8.570;2023-02-02T19:13:18;98852.69;;;6.34;88.70
20987;BME280;10652;50.306;8.570;2023-02-02T19:17:22;98843.19;;;6.30;88.55
20987;BME280;10652;50.306;8.570;2023-02-02T19:21:28;98849.28;;;6.29;89.50
20987;BME280;10652;50.306;8.570;2023-02-02T19:25:31;98844.88;;;6.33;89.79
20987;BME280;10652;50.306;8.570;2023-02-02T19:29:34;98850.94;;;6.33;89.83
20987;BME280;10652;50.306;8.570;2023-02-02T19:33:46;98851.78;;;6.35;89.93
20987;BME280;10652;50.306;8.570;2023-02-02T19:37:51;98845.66;;;6.38;89.20
20987;BME280;10652;50.306;8.570;2023-02-02T19:41:59;98843.91;;;6.38;88.96
20987;BME280;10652;50.306;8.570;2023-02-02T19:46:02;98847.41;;;6.36;88.56
20987;BME280;10652;50.306;8.570;2023-02-02T19:50:18;98844.88;;;6.33;88.82
20987;BME280;10652;50.306;8.570;2023-02-02T19:54:35;98843.09;;;6.35;89.06
20987;BME280;10652;50.306;8.570;2023-02-02T19:58:38;98839.59;;;6.36;89.29
20987;BME280;10652;50.306;8.570;2023-02-02T20:07:08;98860.47;;;6.36;88.92
20987;BME280;10652;50.306;8.570;2023-02-02T20:11:25;98856.16;;;6.33;89.28
20987;BME280;10652;50.306;8.570;2023-02-02T20:15:38;98859.66;;;6.34;88.89
20987;BME280;10652;50.306;8.570;2023-02-02T20:19:41;98870.97;;;6.33;89.05
20987;BME280;10652;50.306;8.570;2023-02-02T20:23:46;98878.81;;;6.31;89.32
20987;BME280;10652;50.306;8.570;2023-02-02T20:27:48;98877.97;;;6.31;89.47
20987;BME280;10652;50.306;8.570;2023-02-02T20:31:52;98881.47;;;6.30;89.77
20987;BME280;10652;50.306;8.570;2023-02-02T20:35:55;98882.31;;;6.27;89.86
20987;BME280;10652;50.306;8.570;2023-02-02T20:40:00;98884.91;;;6.29;90.19
20987;BME280;10652;50.306;8.570;2023-02-02T20:44:03;98895.31;;;6.32;89.89
20987;BME280;10652;50.306;8.570;2023-02-02T20:48:05;98910.13;;;6.31;90.38
20987;BME280;10652;50.306;8.570;2023-02-02T20:52:09;98902.31;;;6.27;90.40
20987;BME280;10652;50.306;8.570;2023-02-02T20:56:13;98903.25;;;6.26;90.74
20987;BME280;10652;50.306;8.570;2023-02-02T21:00:16;98897.09;;;6.27;90.94
20987;BME280;10652;50.306;8.570;2023-02-02T21:04:20;98897.09;;;6.28;91.72
20987;BME280;10652;50.306;8.570;2023-02-02T21:08:22;98893.66;;;6.26;91.84
20987;BME280;10652;50.306;8.570;2023-02-02T21:12:24;98895.41;;;6.26;92.27
20987;BME280;10652;50.306;8.570;2023-02-02T21:16:26;98893.69;;;6.25;92.50
20987;BME280;10652;50.306;8.570;2023-02-02T21:20:29;98892.88;;;6.21;92.05
20987;BME280;10652;50.306;8.570;2023-02-02T21:24:31;98898.97;;;6.22;92.70
20987;BME280;10652;50.306;8.570;2023-02-02T21:28:33;98900.31;;;6.47;96.97
20987;BME280;10652;50.306;8.570;2023-02-02T21:32:35;98889.81;;;6.96;95.92
20987;BME280;10652;50.306;8.570;2023-02-02T21:36:41;98881.88;;;7.04;90.33
20987;BME280;10652;50.306;8.570;2023-02-02T21:40:43;98875.19;;;6.87;89.76
20987;BME280;10652;50.306;8.570;2023-02-02T21:44:50;98871.13;;;6.73;89.49
20987;BME280;10652;50.306;8.570;2023-02-02T21:48:54;98867.88;;;6.59;89.79
20987;BME280;10652;50.306;8.570;2023-02-02T21:53:18;98881.06;;;6.53;90.62
20987;BME280;10652;50.306;8.570;2023-02-02T21:57:24;98886.38;;;6.48;91.28
20987;BME280;10652;50.306;8.570;2023-02-02T22:01:36;98878.63;;;6.42;91.63
20987;BME280;10652;50.306;8.570;2023-02-02T22:05:40;98881.31;;;6.39;91.77
20987;BME280;10652;50.306;8.570;2023-02-02T22:09:44;98880.50;;;6.35;92.32
20987;BME280;10652;50.306;8.570;2023-02-02T22:13:47;98874.50;;;6.30;92.32
20987;BME280;10652;50.306;8.570;2023-02-02T22:17:49;98875.41;;;6.26;92.53
20987;BME280;10652;50.306;8.570;2023-02-02T22:21:51;98877.19;;;6.23;92.92
20987;BME280;10652;50.306;8.570;2023-02-02T22:25:56;98884.13;;;6.22;93.07
20987;BME280;10652;50.306;8.570;2023-02-02T22:30:22;98894.56;;;6.24;93.24
20987;BME280;10652;50.306;8.570;2023-02-02T22:34:26;98902.38;;;6.24;93.23
20987;BME280;10652;50.306;8.570;2023-02-02T22:38:28;98889.34;;;6.24;93.11
20987;BME280;10652;50.306;8.570;2023-02-02T22:42:30;98878.03;;;6.25;93.10
20987;BME280;10652;50.306;8.570;2023-02-02T22:46:32;98882.41;;;6.23;93.11
20987;BME280;10652;50.306;8.570;2023-02-02T22:50:34;98893.69;;;6.25;93.04
20987;BME280;10652;50.306;8.570;2023-02-02T22:54:36;98903.28;;;6.23;93.04
20987;BME280;10652;50.306;8.570;2023-02-02T22:58:39;98906.75;;;6.23;93.09
20987;BME280;10652;50.306;8.570;2023-02-02T23:02:41;98900.66;;;6.23;93.41
20987;BME280;10652;50.306;8.570;2023-02-02T23:06:43;98906.72;;;6.25;94.45
20987;BME280;10652;50.306;8.570;2023-02-02T23:10:46;98900.22;;;6.50;94.70
20987;BME280;10652;50.306;8.570;2023-02-02T23:14:48;98893.47;;;6.40;92.51
20987;BME280;10652;50.306;8.570;2023-02-02T23:18:50;98871.03;;;6.30;92.67
20987;BME280;10652;50.306;8.570;2023-02-02T23:22:52;98864.13;;;6.23;93.25
20987;BME280;10652;50.306;8.570;2023-02-02T23:26:54;98879.06;;;6.15;93.76
20987;BME280;10652;50.306;8.570;2023-02-02T23:30:56;98883.53;;;6.07;94.42
20987;BME280;10652;50.306;8.570;2023-02-02T23:35:00;98867.91;;;6.05;94.91
20987;BME280;10652;50.306;8.570;2023-02-02T23:39:02;98886.22;;;6.03;95.14
20987;BME280;10652;50.306;8.570;2023-02-02T23:43:04;98906.22;;;6.01;95.57